Overview Statistics Trail Chart Weather Telemetry Raw packets
 

This is the latest recevied weather packets stored in our database for station/object KY0TEQ-13. If no packets are shown the sender has not sent any weather packets the latest 10 day(s).

<< 106 107 108 109 110 111 112 >>
Time Temp. Humidity Pressure Rain* Wind** Luminosity Snow
1787884544 18.89° C 46% 1310.1 hPa 0 mm - 0 W/m² -
1787884241 19.44° C 44% 1310.4 hPa 0 mm - 0 W/m² -
1787883935 19.44° C 40% 1310.2 hPa 0 mm - 0 W/m² -
1787883630 20° C 44% 1310.2 hPa 0 mm - 0 W/m² -
1787883326 20° C 45% 1310.1 hPa 0 mm - 0 W/m² -
1787883025 20° C 40% 1310 hPa 0 mm - 0 W/m² -
1787882721 20° C 48% 1310 hPa 0 mm - 0 W/m² -
1787882417 20.56° C 45% 1309.9 hPa 0 mm - 0 W/m² -
1787882112 20.56° C 46% 1310 hPa 0 mm - 1 W/m² -
1787881806 21.67° C 40% 1310.1 hPa 0 mm - 2 W/m² -
1787881501 20.56° C 47% 1309.9 hPa 0 mm - 4 W/m² -
1787881198 20.56° C 49% 1309.6 hPa 0 mm - 6 W/m² -
1787880893 22.78° C 45% 1309.9 hPa 0 mm - 9 W/m² -
1787880587 23.33° C 39% 1309.7 hPa 0 mm - 12 W/m² -
1787880284 24.44° C 33% 1309.7 hPa 0 mm - 15 W/m² -
1787879980 25° C 29% 1309.9 hPa 0 mm - 20 W/m² -
1787879675 24.44° C 32% 1309.6 hPa 0 mm - 21 W/m² -
1787879371 25° C 34% 1309.6 hPa 0 mm - 25 W/m² -
1787879066 26.67° C 33% 1310 hPa 0 mm - 27 W/m² -
1787878762 27.78° C 28% 1309.9 hPa 0 mm - 41 W/m² -
1787878461 27.22° C 26% 1309.9 hPa 0 mm - 48 W/m² -
1787878157 26.11° C 29% 1309.6 hPa 0 mm - 45 W/m² -
1787877853 26.11° C 29% 1310 hPa 0 mm - 52 W/m² -
1787877553 26.67° C 25% 1309.7 hPa 0 mm - 30 W/m² -
1787877249 27.22° C 24% 1309.7 hPa 0 mm - 31 W/m² -

* Rain latest hour (hover to see other rain measurements)
** Current wind speed in m/s (hover to see current wind gust speed)